createdAt,value
2023-03-29T00:00:00.682Z,1015.06
2023-03-29T00:01:01.259Z,1015.08
2023-03-29T00:02:01.241Z,1015.07
2023-03-29T00:03:01.519Z,1015.04
2023-03-29T00:04:02.864Z,1015.10
2023-03-29T00:05:02.241Z,1015.10
2023-03-29T00:06:02.362Z,1015.04
2023-03-29T00:07:02.585Z,1015.08
2023-03-29T00:08:02.925Z,1015.05
2023-03-29T00:09:03.169Z,1015.04
2023-03-29T00:10:03.394Z,1015.02
2023-03-29T00:11:04.040Z,1014.98
2023-03-29T00:12:03.990Z,1014.95
2023-03-29T00:13:04.205Z,1014.95
2023-03-29T00:14:04.573Z,1014.96
2023-03-29T00:15:04.789Z,1014.90
2023-03-29T00:16:05.149Z,1014.84
2023-03-29T00:17:05.438Z,1014.86
2023-03-29T00:18:05.864Z,1014.90
2023-03-29T00:19:05.977Z,1014.89
2023-03-29T00:20:06.209Z,1014.83
2023-03-29T00:21:06.450Z,1014.85
2023-03-29T00:22:06.678Z,1014.81
2023-03-29T00:23:06.895Z,1014.85
2023-03-29T00:24:07.241Z,1014.79
2023-03-29T00:25:07.481Z,1014.80
2023-03-29T00:26:08.323Z,1014.80
2023-03-29T00:27:08.040Z,1014.79
2023-03-29T00:28:08.382Z,1014.76
2023-03-29T00:29:08.635Z,1014.75
2023-03-29T00:30:08.860Z,1014.76
2023-03-29T00:31:09.108Z,1014.74
2023-03-29T00:32:09.335Z,1014.73
2023-03-29T00:33:09.600Z,1014.76
2023-03-29T00:34:09.918Z,1014.72
2023-03-29T00:35:10.167Z,1014.71
2023-03-29T00:36:10.486Z,1014.69
2023-03-29T00:37:10.718Z,1014.70
2023-03-29T00:38:10.963Z,1014.70
2023-03-29T00:39:11.211Z,1014.69
2023-03-29T00:40:11.446Z,1014.68
2023-03-29T00:41:11.781Z,1014.71
2023-03-29T00:42:12.003Z,1014.65
2023-03-29T00:43:12.222Z,1014.66
2023-03-29T00:44:12.517Z,1014.62
2023-03-29T00:45:12.737Z,1014.65
2023-03-29T00:46:13.156Z,1014.61
2023-03-29T00:47:13.342Z,1014.61
2023-03-29T00:48:13.753Z,1014.62
2023-03-29T00:49:14.023Z,1014.58
2023-03-29T00:50:14.233Z,1014.62
2023-03-29T00:51:14.454Z,1014.62
2023-03-29T00:52:14.686Z,1014.60
2023-03-29T00:53:14.904Z,1014.63
2023-03-29T00:54:15.397Z,1014.58
2023-03-29T00:55:15.395Z,1014.61
2023-03-29T00:56:15.632Z,1014.59
2023-03-29T00:57:15.981Z,1014.58
2023-03-29T00:58:16.173Z,1014.51
2023-03-29T00:59:16.419Z,1014.55
2023-03-29T01:00:16.657Z,1014.52
2023-03-29T01:01:16.876Z,1014.51
2023-03-29T01:02:17.885Z,1014.52
2023-03-29T01:03:17.520Z,1014.47
2023-03-29T01:04:17.765Z,1014.45
2023-03-29T01:05:18.031Z,1014.45
2023-03-29T01:06:18.287Z,1014.48
2023-03-29T01:07:18.568Z,1014.47
2023-03-29T01:08:18.783Z,1014.42
2023-03-29T01:09:19.021Z,1014.40
2023-03-29T01:10:19.232Z,1014.43
2023-03-29T01:11:19.465Z,1014.38
2023-03-29T01:12:19.710Z,1014.37
2023-03-29T01:13:19.947Z,1014.39
2023-03-29T01:14:20.208Z,1014.37
2023-03-29T01:15:20.444Z,1014.35
2023-03-29T01:16:20.718Z,1014.31
2023-03-29T01:17:20.937Z,1014.31
2023-03-29T01:18:21.182Z,1014.28
2023-03-29T01:19:21.522Z,1014.28
2023-03-29T01:20:21.753Z,1014.22
2023-03-29T01:21:21.985Z,1014.26
2023-03-29T01:22:22.200Z,1014.20
2023-03-29T01:23:22.433Z,1014.20
2023-03-29T01:24:22.666Z,1014.17
2023-03-29T01:25:22.891Z,1014.15
2023-03-29T01:26:23.154Z,1014.12
2023-03-29T01:27:23.393Z,1014.10
2023-03-29T01:28:23.603Z,1014.09
2023-03-29T01:29:23.958Z,1014.03
2023-03-29T01:30:24.180Z,1014.09
2023-03-29T01:31:24.608Z,1014.06
2023-03-29T01:32:24.850Z,1014.03
2023-03-29T01:33:25.175Z,1014.01
2023-03-29T01:34:25.413Z,1014.00
2023-03-29T01:35:25.634Z,1013.95
2023-03-29T01:36:25.850Z,1013.95
2023-03-29T01:37:26.192Z,1013.91
2023-03-29T01:38:26.423Z,1013.91
2023-03-29T01:39:26.779Z,1013.90
2023-03-29T01:40:27.007Z,1013.89
2023-03-29T01:41:27.230Z,1013.88
2023-03-29T01:42:27.448Z,1013.84
2023-03-29T01:43:27.676Z,1013.86
2023-03-29T01:44:27.905Z,1013.82
2023-03-29T01:45:28.173Z,1013.79
2023-03-29T01:46:28.419Z,1013.78
2023-03-29T01:47:28.644Z,1013.79
2023-03-29T01:48:28.852Z,1013.76
2023-03-29T01:49:29.112Z,1013.74
2023-03-29T01:50:29.347Z,1013.73
2023-03-29T01:51:29.585Z,1013.73
2023-03-29T01:52:29.810Z,1013.75
2023-03-29T01:53:30.160Z,1013.71
2023-03-29T01:54:30.396Z,1013.65
2023-03-29T01:55:30.634Z,1013.64
2023-03-29T01:56:30.857Z,1013.63
2023-03-29T01:57:31.196Z,1013.64
2023-03-29T01:58:31.437Z,1013.55
2023-03-29T01:59:31.801Z,1013.55
2023-03-29T02:00:32.064Z,1013.58
2023-03-29T02:01:32.385Z,1013.53
2023-03-29T02:02:32.667Z,1013.56
2023-03-29T02:03:33.100Z,1013.54
2023-03-29T02:04:33.153Z,1013.54
2023-03-29T02:05:33.425Z,1013.53
2023-03-29T02:06:33.649Z,1013.54
2023-03-29T02:07:33.937Z,1013.50
2023-03-29T02:08:34.192Z,1013.50
2023-03-29T02:09:34.533Z,1013.56
2023-03-29T02:10:34.753Z,1013.57
2023-03-29T02:11:34.972Z,1013.51
2023-03-29T02:12:35.203Z,1013.51
2023-03-29T02:13:35.449Z,1013.53
2023-03-29T02:14:35.708Z,1013.55
2023-03-29T02:15:36.021Z,1013.47
2023-03-29T02:16:36.242Z,1013.46
2023-03-29T02:17:36.584Z,1013.48
2023-03-29T02:18:36.806Z,1013.41
2023-03-29T02:19:37.063Z,1013.40
2023-03-29T02:20:37.279Z,1013.38
2023-03-29T02:21:37.646Z,1013.39
2023-03-29T02:22:37.872Z,1013.35
2023-03-29T02:23:38.208Z,1013.36
2023-03-29T02:24:38.439Z,1013.31
2023-03-29T02:25:38.674Z,1013.31
2023-03-29T02:26:38.916Z,1013.31
2023-03-29T02:27:39.143Z,1013.27
2023-03-29T02:28:39.406Z,1013.26
2023-03-29T02:29:39.674Z,1013.26
2023-03-29T02:30:39.979Z,1013.22
2023-03-29T02:31:40.224Z,1013.20
2023-03-29T02:32:40.511Z,1013.20
2023-03-29T02:33:40.713Z,1013.17
2023-03-29T02:34:40.963Z,1013.16
2023-03-29T02:35:41.213Z,1013.13
2023-03-29T02:36:41.457Z,1013.14
2023-03-29T02:37:41.779Z,1013.06
2023-03-29T02:38:42.026Z,1013.07
2023-03-29T02:39:42.276Z,1013.03
2023-03-29T02:40:42.515Z,1013.05
2023-03-29T02:41:42.795Z,1013.00
2023-03-29T02:42:42.997Z,1013.01
2023-03-29T02:43:43.216Z,1013.02
2023-03-29T02:44:43.455Z,1012.99
2023-03-29T02:45:43.689Z,1013.02
2023-03-29T02:46:44.101Z,1012.96
2023-03-29T02:47:44.316Z,1012.99
2023-03-29T02:48:44.524Z,1012.97
2023-03-29T02:49:44.910Z,1013.03
2023-03-29T02:50:45.167Z,1012.96
2023-03-29T02:51:45.257Z,1012.98
2023-03-29T02:52:45.488Z,1012.93
2023-03-29T02:53:45.843Z,1012.93
2023-03-29T02:54:46.108Z,1012.91
2023-03-29T02:55:46.345Z,1012.93
2023-03-29T02:56:46.572Z,1012.88
2023-03-29T02:57:46.913Z,1012.92
2023-03-29T02:58:47.148Z,1012.89
2023-03-29T02:59:47.397Z,1012.91
2023-03-29T03:00:47.625Z,1012.85
2023-03-29T03:01:48.035Z,1012.87
2023-03-29T03:02:48.309Z,1012.81
2023-03-29T03:03:48.581Z,1012.83
2023-03-29T03:04:48.816Z,1012.83
2023-03-29T03:05:49.042Z,1012.82
2023-03-29T03:06:49.333Z,1012.77
2023-03-29T03:07:49.555Z,1012.81
2023-03-29T03:08:49.809Z,1012.80
2023-03-29T03:09:50.063Z,1012.80
2023-03-29T03:10:50.286Z,1012.78
2023-03-29T03:11:50.529Z,1012.82
2023-03-29T03:12:50.775Z,1012.78
2023-03-29T03:13:51.007Z,1012.83
2023-03-29T03:14:51.362Z,1012.80
2023-03-29T03:15:51.553Z,1012.79
2023-03-29T03:16:51.737Z,1012.71
2023-03-29T03:17:52.010Z,1012.71
2023-03-29T03:18:52.216Z,1012.69
2023-03-29T03:19:52.452Z,1012.70
2023-03-29T03:20:52.680Z,1012.71
2023-03-29T03:21:52.924Z,1012.68
2023-03-29T03:22:53.153Z,1012.66
2023-03-29T03:23:53.504Z,1012.67
2023-03-29T03:24:53.732Z,1012.66
2023-03-29T03:25:53.998Z,1012.67
2023-03-29T03:26:54.246Z,1012.66
2023-03-29T03:27:54.472Z,1012.64
2023-03-29T03:28:54.679Z,1012.64
2023-03-29T03:29:55.046Z,1012.63
2023-03-29T03:30:55.319Z,1012.61
2023-03-29T03:31:55.647Z,1012.62
2023-03-29T03:32:55.861Z,1012.59
2023-03-29T03:33:56.121Z,1012.57
2023-03-29T03:34:56.444Z,1012.58
2023-03-29T03:35:56.723Z,1012.53
2023-03-29T03:36:56.967Z,1012.54
2023-03-29T03:37:57.205Z,1012.48
2023-03-29T03:38:57.430Z,1012.49
2023-03-29T03:39:57.689Z,1012.51
2023-03-29T03:40:57.909Z,1012.52
2023-03-29T03:41:58.163Z,1012.46
2023-03-29T03:42:58.390Z,1012.51
2023-03-29T03:43:58.619Z,1012.42
2023-03-29T03:44:58.866Z,1012.51
2023-03-29T03:45:59.245Z,1012.46
2023-03-29T03:46:59.333Z,1012.47
2023-03-29T03:47:59.637Z,1012.44
2023-03-29T03:48:59.818Z,1012.50
2023-03-29T03:50:00.116Z,1012.50
2023-03-29T03:51:00.696Z,1012.49
2023-03-29T03:52:00.675Z,1012.51
2023-03-29T03:53:00.905Z,1012.48
2023-03-29T03:54:01.167Z,1012.45
2023-03-29T03:55:01.405Z,1012.44
2023-03-29T03:56:01.660Z,1012.46
2023-03-29T03:57:01.916Z,1012.45
2023-03-29T03:58:02.130Z,1012.47
2023-03-29T03:59:02.366Z,1012.44
2023-03-29T04:00:02.621Z,1012.43
2023-03-29T04:01:02.980Z,1012.43
2023-03-29T04:02:03.203Z,1012.42
2023-03-29T04:03:03.458Z,1012.43
2023-03-29T04:04:03.763Z,1012.40
2023-03-29T04:05:03.971Z,1012.43
2023-03-29T04:06:04.225Z,1012.40
2023-03-29T04:07:04.470Z,1012.42
2023-03-29T04:08:04.732Z,1012.43
2023-03-29T04:09:04.981Z,1012.44
2023-03-29T04:10:05.239Z,1012.46
2023-03-29T04:11:05.489Z,1012.43
2023-03-29T04:12:05.745Z,1012.44
2023-03-29T04:13:05.990Z,1012.46
2023-03-29T04:14:14.145Z,1012.45
2023-03-29T04:15:08.157Z,1012.43
2023-03-29T04:16:06.773Z,1012.40
2023-03-29T04:17:08.712Z,1012.46
2023-03-29T04:18:07.802Z,1012.45
2023-03-29T04:19:07.619Z,1012.43
2023-03-29T04:20:07.915Z,1012.38
2023-03-29T04:21:08.169Z,1012.33
2023-03-29T04:22:08.519Z,1012.37
2023-03-29T04:23:08.787Z,1012.38
2023-03-29T04:24:09.058Z,1012.38
2023-03-29T04:25:09.349Z,1012.33
2023-03-29T04:26:09.607Z,1012.36
2023-03-29T04:27:09.863Z,1012.36
2023-03-29T04:28:10.146Z,1012.35
2023-03-29T04:29:10.388Z,1012.32
2023-03-29T04:30:10.751Z,1012.36
2023-03-29T04:31:10.911Z,1012.39
2023-03-29T04:32:11.173Z,1012.40
2023-03-29T04:33:11.509Z,1012.37
2023-03-29T04:34:11.763Z,1012.36
2023-03-29T04:35:12.041Z,1012.39
2023-03-29T04:36:12.396Z,1012.34
2023-03-29T04:37:12.648Z,1012.30
2023-03-29T04:38:12.938Z,1012.35
2023-03-29T04:39:13.220Z,1012.30
2023-03-29T04:40:13.530Z,1012.37
2023-03-29T04:41:13.812Z,1012.31
2023-03-29T04:42:14.094Z,1012.31
2023-03-29T04:43:14.386Z,1012.30
2023-03-29T04:44:14.648Z,1012.28
2023-03-29T04:45:14.971Z,1012.33
2023-03-29T04:46:15.319Z,1012.33
2023-03-29T04:47:15.466Z,1012.28
2023-03-29T04:48:15.746Z,1012.32
2023-03-29T04:49:16.017Z,1012.29
2023-03-29T04:50:16.325Z,1012.28
2023-03-29T04:51:16.593Z,1012.31
2023-03-29T04:52:16.890Z,1012.26
2023-03-29T04:53:17.164Z,1012.27
2023-03-29T04:54:17.446Z,1012.29
2023-03-29T04:55:17.785Z,1012.31
2023-03-29T04:56:18.052Z,1012.28
2023-03-29T04:57:18.359Z,1012.23
2023-03-29T04:58:20.712Z,1012.20
2023-03-29T04:59:18.869Z,1012.20
2023-03-29T05:00:19.151Z,1012.20
2023-03-29T05:01:19.433Z,1012.17
2023-03-29T05:02:19.694Z,1012.14
2023-03-29T05:03:19.963Z,1012.13
2023-03-29T05:04:20.260Z,1012.13
2023-03-29T05:05:20.513Z,1012.07
2023-03-29T05:06:20.787Z,1012.04
2023-03-29T05:07:21.056Z,1012.06
2023-03-29T05:08:21.324Z,1012.05
2023-03-29T05:09:21.598Z,1012.04
2023-03-29T05:10:21.889Z,1012.03
2023-03-29T05:11:22.126Z,1012.01
2023-03-29T05:12:22.407Z,1012.05
2023-03-29T05:13:22.704Z,1012.00
2023-03-29T05:14:22.961Z,1012.01
2023-03-29T05:15:23.232Z,1012.01
2023-03-29T05:16:23.523Z,1011.98
2023-03-29T05:17:23.856Z,1012.00
2023-03-29T05:18:24.092Z,1012.04
2023-03-29T05:19:24.370Z,1012.04
2023-03-29T05:20:24.641Z,1012.01
2023-03-29T05:21:24.886Z,1011.96
2023-03-29T05:22:25.157Z,1011.96
2023-03-29T05:23:25.402Z,1011.97
2023-03-29T05:24:25.679Z,1011.99
2023-03-29T05:25:26.028Z,1011.99
2023-03-29T05:26:26.178Z,1011.98
2023-03-29T05:27:26.463Z,1011.91
2023-03-29T05:28:26.712Z,1011.89
2023-03-29T05:29:26.983Z,1011.89
2023-03-29T05:30:27.243Z,1011.92
2023-03-29T05:31:27.512Z,1011.89
2023-03-29T05:32:27.788Z,1011.91
2023-03-29T05:33:28.004Z,1011.92
2023-03-29T05:34:28.249Z,1011.92
2023-03-29T05:35:28.545Z,1011.94
2023-03-29T05:36:28.757Z,1011.96
2023-03-29T05:37:29.022Z,1011.92
2023-03-29T05:38:29.270Z,1011.94
2023-03-29T05:39:29.523Z,1011.93
2023-03-29T05:40:29.792Z,1011.96
2023-03-29T05:41:30.043Z,1011.89
2023-03-29T05:42:30.265Z,1011.94
2023-03-29T05:43:30.505Z,1011.93
2023-03-29T05:44:30.751Z,1011.86
2023-03-29T05:45:31.056Z,1011.84
2023-03-29T05:46:31.268Z,1011.84
2023-03-29T05:47:31.604Z,1011.85
2023-03-29T05:48:31.831Z,1011.85
2023-03-29T05:49:32.072Z,1011.86
2023-03-29T05:50:32.348Z,1011.85
2023-03-29T05:51:32.577Z,1011.87
2023-03-29T05:52:32.810Z,1011.83
2023-03-29T05:53:33.042Z,1011.88
2023-03-29T05:54:33.299Z,1011.87
2023-03-29T05:55:33.592Z,1011.89
2023-03-29T05:56:33.819Z,1011.89
2023-03-29T05:57:34.041Z,1011.82
2023-03-29T05:58:34.274Z,1011.83
2023-03-29T05:59:34.569Z,1011.81
2023-03-29T06:00:34.829Z,1011.82
2023-03-29T06:01:35.078Z,1011.82
2023-03-29T06:02:35.389Z,1011.83
2023-03-29T06:03:35.676Z,1011.84
2023-03-29T06:04:35.878Z,1011.76
2023-03-29T06:05:36.163Z,1011.84
2023-03-29T06:06:36.423Z,1011.85
2023-03-29T06:07:36.626Z,1011.86
2023-03-29T06:08:36.847Z,1011.89
2023-03-29T06:09:37.197Z,1011.79
2023-03-29T06:10:37.446Z,1011.82
2023-03-29T06:11:37.661Z,1011.81
2023-03-29T06:12:37.881Z,1011.81
2023-03-29T06:13:38.126Z,1011.79
2023-03-29T06:14:38.350Z,1011.81
2023-03-29T06:15:38.597Z,1011.79
2023-03-29T06:16:40.730Z,1011.78
2023-03-29T06:17:39.119Z,1011.77
2023-03-29T06:18:39.348Z,1011.81
2023-03-29T06:19:39.612Z,1011.79
2023-03-29T06:20:39.835Z,1011.79
2023-03-29T06:21:40.075Z,1011.78
2023-03-29T06:22:40.297Z,1011.81
2023-03-29T06:23:40.515Z,1011.72
2023-03-29T06:24:40.783Z,1011.73
2023-03-29T06:25:41.043Z,1011.72
2023-03-29T06:26:41.256Z,1011.74
2023-03-29T06:27:41.509Z,1011.78
2023-03-29T06:28:41.722Z,1011.79
2023-03-29T06:29:41.939Z,1011.78
2023-03-29T06:30:42.213Z,1011.74
2023-03-29T06:31:42.539Z,1011.78
2023-03-29T06:32:42.791Z,1011.77
2023-03-29T06:33:43.018Z,1011.75
2023-03-29T06:34:43.248Z,1011.79
2023-03-29T06:35:43.480Z,1011.80
2023-03-29T06:36:43.677Z,1011.75
2023-03-29T06:37:44.016Z,1011.76
2023-03-29T06:38:44.211Z,1011.72
2023-03-29T06:39:44.531Z,1011.80
2023-03-29T06:40:44.802Z,1011.77
2023-03-29T06:41:45.010Z,1011.74
2023-03-29T06:42:45.286Z,1011.78
2023-03-29T06:43:45.447Z,1011.78
2023-03-29T06:44:45.663Z,1011.71
2023-03-29T06:45:45.893Z,1011.66
2023-03-29T06:46:46.140Z,1011.69
2023-03-29T06:47:46.387Z,1011.70
2023-03-29T06:48:46.895Z,1011.66
2023-03-29T06:49:46.808Z,1011.68
2023-03-29T06:50:47.031Z,1011.64
2023-03-29T06:51:47.244Z,1011.71
2023-03-29T06:52:47.456Z,1011.68
2023-03-29T06:53:47.796Z,1011.68
2023-03-29T06:54:48.005Z,1011.62
2023-03-29T06:55:48.225Z,1011.60
2023-03-29T06:56:48.449Z,1011.59
2023-03-29T06:57:48.642Z,1011.65
2023-03-29T06:58:48.844Z,1011.59
2023-03-29T06:59:49.190Z,1011.60
2023-03-29T07:00:49.405Z,1011.59
2023-03-29T07:01:49.657Z,1011.65
2023-03-29T07:02:49.904Z,1011.62
2023-03-29T07:03:50.115Z,1011.64
2023-03-29T07:04:50.317Z,1011.62
2023-03-29T07:05:50.654Z,1011.62
2023-03-29T07:06:50.860Z,1011.63
2023-03-29T07:07:51.174Z,1011.64
2023-03-29T07:08:51.476Z,1011.66
2023-03-29T07:09:51.634Z,1011.66
2023-03-29T07:10:51.849Z,1011.67
2023-03-29T07:11:52.062Z,1011.72
2023-03-29T07:12:52.245Z,1011.64
2023-03-29T07:13:52.576Z,1011.61
2023-03-29T07:14:52.750Z,1011.63
2023-03-29T07:15:53.119Z,1011.60
2023-03-29T07:16:53.313Z,1011.62
2023-03-29T07:17:53.650Z,1011.60
2023-03-29T07:18:53.815Z,1011.60
2023-03-29T07:19:54.012Z,1011.62
2023-03-29T07:20:54.335Z,1011.60
2023-03-29T07:21:54.522Z,1011.58
2023-03-29T07:22:54.715Z,1011.59
2023-03-29T07:23:55.020Z,1011.62
2023-03-29T07:24:55.218Z,1011.62
2023-03-29T07:25:55.575Z,1011.57
2023-03-29T07:27:04.249Z,1011.59
2023-03-29T07:27:57.058Z,1011.63
2023-03-29T07:28:56.266Z,1011.63
2023-03-29T07:29:56.491Z,1011.61
2023-03-29T07:30:56.694Z,1011.59
2023-03-29T07:31:56.899Z,1011.55
2023-03-29T07:32:57.189Z,1011.54
2023-03-29T07:33:57.482Z,1011.57
2023-03-29T07:34:57.672Z,1011.56
2023-03-29T07:35:58.016Z,1011.55
2023-03-29T07:36:58.184Z,1011.58
2023-03-29T07:37:58.493Z,1011.57
2023-03-29T07:38:58.696Z,1011.52
2023-03-29T07:39:58.897Z,1011.53
2023-03-29T07:40:59.121Z,1011.60
2023-03-29T07:41:59.382Z,1011.54
2023-03-29T07:42:59.559Z,1011.53
2023-03-29T07:45:00.072Z,1011.58
2023-03-29T07:46:00.376Z,1011.56
2023-03-29T07:47:00.548Z,1011.53
2023-03-29T07:48:01.801Z,1011.48
2023-03-29T07:49:01.034Z,1011.50
2023-03-29T07:50:01.291Z,1011.50
2023-03-29T07:51:01.821Z,1011.52
2023-03-29T07:52:01.690Z,1011.43
2023-03-29T07:53:01.867Z,1011.37
2023-03-29T07:54:02.160Z,1011.39
2023-03-29T07:55:02.345Z,1011.41
2023-03-29T07:56:02.641Z,1011.40
2023-03-29T07:57:02.862Z,1011.43
2023-03-29T07:58:03.123Z,1011.42
2023-03-29T07:59:03.298Z,1011.42
2023-03-29T08:00:03.590Z,1011.42
2023-03-29T08:01:04.003Z,1011.45
2023-03-29T08:02:03.958Z,1011.39
2023-03-29T08:03:04.307Z,1011.37
2023-03-29T08:04:04.543Z,1011.36
2023-03-29T08:05:04.688Z,1011.38
2023-03-29T08:06:05.830Z,1011.36
2023-03-29T08:07:05.119Z,1011.40
2023-03-29T08:08:05.295Z,1011.42
2023-03-29T08:09:05.471Z,1011.44
2023-03-29T08:10:05.677Z,1011.46
2023-03-29T08:11:05.830Z,1011.43
2023-03-29T08:12:06.004Z,1011.44
2023-03-29T08:13:06.301Z,1011.46
2023-03-29T08:14:06.472Z,1011.48
2023-03-29T08:15:06.635Z,1011.41
2023-03-29T08:16:06.922Z,1011.40
2023-03-29T08:17:07.290Z,1011.38
2023-03-29T08:18:07.410Z,1011.37
2023-03-29T08:19:07.502Z,1011.37
2023-03-29T08:20:07.672Z,1011.28
2023-03-29T08:21:07.845Z,1011.38
2023-03-29T08:22:08.179Z,1011.44
2023-03-29T08:23:08.329Z,1011.41
2023-03-29T08:24:08.644Z,1011.37
2023-03-29T08:25:08.786Z,1011.38
2023-03-29T08:26:08.972Z,1011.39
2023-03-29T08:27:09.131Z,1011.33
2023-03-29T08:28:09.434Z,1011.35
2023-03-29T08:29:09.604Z,1011.30
2023-03-29T08:30:09.780Z,1011.24
2023-03-29T08:31:10.011Z,1011.27
2023-03-29T08:32:10.140Z,1011.24
2023-03-29T08:33:10.339Z,1011.27
2023-03-29T08:34:10.483Z,1011.18
2023-03-29T08:35:10.650Z,1011.10
2023-03-29T08:36:10.851Z,1011.09
2023-03-29T08:37:11.000Z,1011.07
2023-03-29T08:38:11.258Z,1011.07
2023-03-29T08:39:11.411Z,1011.03
2023-03-29T08:40:11.564Z,1011.06
2023-03-29T08:41:11.720Z,1011.10
2023-03-29T08:42:11.850Z,1011.07
2023-03-29T08:43:12.003Z,1011.07
2023-03-29T08:44:12.246Z,1011.05
2023-03-29T08:45:12.394Z,1011.12
2023-03-29T08:46:12.808Z,1011.05
2023-03-29T08:47:12.824Z,1011.01
2023-03-29T08:48:13.044Z,1011.06
2023-03-29T08:49:13.117Z,1011.10
2023-03-29T08:50:13.251Z,1011.07
2023-03-29T08:51:13.397Z,1010.97
2023-03-29T08:52:13.535Z,1010.96
2023-03-29T08:53:13.675Z,1011.01
2023-03-29T08:54:13.796Z,1010.91
2023-03-29T08:55:13.933Z,1010.92
2023-03-29T08:56:14.070Z,1010.83
2023-03-29T08:57:14.223Z,1010.86
2023-03-29T08:58:14.408Z,1010.88
2023-03-29T08:59:14.524Z,1010.89
2023-03-29T09:00:14.656Z,1010.83
2023-03-29T09:01:14.806Z,1010.97
2023-03-29T09:02:15.132Z,1010.92
2023-03-29T09:03:15.067Z,1010.91
2023-03-29T09:04:15.232Z,1010.98
2023-03-29T09:05:15.347Z,1010.98
2023-03-29T09:06:15.594Z,1010.88
2023-03-29T09:07:15.708Z,1010.94
2023-03-29T09:08:15.818Z,1010.87
2023-03-29T09:09:15.930Z,1010.87
2023-03-29T09:10:16.032Z,1010.84
2023-03-29T09:11:16.139Z,1010.81
2023-03-29T09:12:16.279Z,1010.72
2023-03-29T09:13:16.384Z,1010.72
2023-03-29T09:14:16.465Z,1010.72
2023-03-29T09:15:16.562Z,1010.69
2023-03-29T09:16:16.700Z,1010.71
2023-03-29T09:17:16.769Z,1010.71
2023-03-29T09:18:16.902Z,1010.67
2023-03-29T09:19:17.025Z,1010.63
2023-03-29T09:20:17.113Z,1010.71
2023-03-29T09:21:17.238Z,1010.79
2023-03-29T09:22:17.362Z,1010.73
2023-03-29T09:23:17.456Z,1010.78
2023-03-29T09:24:17.549Z,1010.72
2023-03-29T09:25:17.640Z,1010.80
2023-03-29T09:26:17.779Z,1010.75
2023-03-29T09:27:17.892Z,1010.76
2023-03-29T09:28:18.062Z,1010.68
2023-03-29T09:29:18.170Z,1010.71
2023-03-29T09:30:18.313Z,1010.77
2023-03-29T09:31:18.439Z,1010.76
2023-03-29T09:32:18.492Z,1010.62
2023-03-29T09:33:18.578Z,1010.73
2023-03-29T09:34:18.701Z,1010.66
2023-03-29T09:35:18.909Z,1010.75
2023-03-29T09:36:19.005Z,1010.71
2023-03-29T09:37:19.076Z,1010.64
2023-03-29T09:38:19.269Z,1010.66
2023-03-29T09:39:19.337Z,1010.75
2023-03-29T09:40:19.428Z,1010.62
2023-03-29T09:41:19.523Z,1010.61
2023-03-29T09:42:19.704Z,1010.65
2023-03-29T09:43:19.785Z,1010.69
2023-03-29T09:44:30.186Z,1010.66
2023-03-29T09:45:21.071Z,1010.69
2023-03-29T09:46:20.197Z,1010.66
2023-03-29T09:47:20.265Z,1010.73
2023-03-29T09:48:20.333Z,1010.68
2023-03-29T09:49:20.413Z,1010.60
2023-03-29T09:50:30.843Z,1010.55
2023-03-29T09:51:21.684Z,1010.53
2023-03-29T09:52:20.751Z,1010.63
2023-03-29T09:53:20.846Z,1010.51
2023-03-29T09:54:20.915Z,1010.61
2023-03-29T09:55:21.005Z,1010.51
2023-03-29T09:56:21.113Z,1010.58
2023-03-29T09:57:21.305Z,1010.64
2023-03-29T09:58:21.291Z,1010.58
2023-03-29T09:59:21.368Z,1010.58
2023-03-29T10:00:21.497Z,1010.54
2023-03-29T10:01:21.574Z,1010.59
2023-03-29T10:02:21.709Z,1010.43
2023-03-29T10:03:21.777Z,1010.59
2023-03-29T10:04:22.817Z,1010.42
2023-03-29T10:05:21.980Z,1010.52
2023-03-29T10:06:22.041Z,1010.62
2023-03-29T10:07:22.146Z,1010.36
2023-03-29T10:08:22.209Z,1010.27
2023-03-29T10:09:22.288Z,1010.35
2023-03-29T10:10:22.365Z,1010.16
2023-03-29T10:11:22.522Z,1010.29
2023-03-29T10:12:22.595Z,1010.34
2023-03-29T10:13:22.677Z,1010.39
2023-03-29T10:15:29.191Z,1010.43
2023-03-29T10:16:24.834Z,1010.25
2023-03-29T10:17:22.940Z,1010.30
2023-03-29T10:18:21.420Z,1010.24
2023-03-29T10:19:21.538Z,1010.24
2023-03-29T10:20:21.642Z,1010.16
2023-03-29T10:21:21.759Z,1010.02
2023-03-29T10:22:21.870Z,1010.07
2023-03-29T10:23:21.956Z,1010.13
2023-03-29T10:24:22.071Z,1010.20
2023-03-29T10:25:22.170Z,1010.03
2023-03-29T10:26:22.268Z,1010.14
2023-03-29T10:27:22.380Z,1010.20
2023-03-29T10:28:22.478Z,1009.94
2023-03-29T10:29:22.582Z,1010.13
2023-03-29T10:30:22.659Z,1010.15
2023-03-29T10:31:22.844Z,1009.90
2023-03-29T10:32:23.205Z,1009.89
2023-03-29T10:33:23.009Z,1009.91
2023-03-29T10:34:23.122Z,1009.94
2023-03-29T10:35:23.257Z,1009.89
2023-03-29T10:36:23.347Z,1010.03
2023-03-29T10:37:23.467Z,1009.84
2023-03-29T10:38:23.584Z,1009.87
2023-03-29T10:39:23.688Z,1009.87
2023-03-29T10:40:23.778Z,1009.94
2023-03-29T10:41:23.896Z,1009.92
2023-03-29T10:42:24.004Z,1009.84
2023-03-29T10:43:24.129Z,1009.84
2023-03-29T10:44:24.241Z,1009.79
2023-03-29T10:45:24.456Z,1009.82
2023-03-29T10:46:24.618Z,1009.92
2023-03-29T10:47:24.959Z,1009.81
2023-03-29T10:48:24.949Z,1009.83
2023-03-29T10:49:25.082Z,1009.75
2023-03-29T10:50:25.215Z,1009.76
2023-03-29T10:51:25.373Z,1009.75
2023-03-29T10:52:25.493Z,1009.72
2023-03-29T10:53:25.739Z,1009.75
2023-03-29T10:54:25.905Z,1009.75
2023-03-29T10:55:26.052Z,1009.77
2023-03-29T10:56:26.219Z,1009.77
2023-03-29T10:57:26.402Z,1009.76
2023-03-29T10:58:26.544Z,1009.83
2023-03-29T10:59:26.706Z,1009.72
2023-03-29T11:00:26.856Z,1009.73
2023-03-29T11:01:27.017Z,1009.63
2023-03-29T11:02:27.281Z,1009.68
2023-03-29T11:03:27.670Z,1009.69
2023-03-29T11:04:27.594Z,1009.74
2023-03-29T11:05:27.859Z,1009.77
2023-03-29T11:06:27.999Z,1009.69
2023-03-29T11:07:28.272Z,1009.74
2023-03-29T11:08:30.397Z,1009.62
2023-03-29T11:09:28.650Z,1009.60
2023-03-29T11:10:28.838Z,1009.66
2023-03-29T11:11:28.994Z,1009.59
2023-03-29T11:12:29.147Z,1009.56
2023-03-29T11:13:29.297Z,1009.60
2023-03-29T11:14:29.476Z,1009.56
2023-03-29T11:15:29.692Z,1009.66
2023-03-29T11:16:29.797Z,1009.64
2023-03-29T11:17:30.109Z,1009.68
2023-03-29T11:18:30.257Z,1009.68
2023-03-29T11:19:30.433Z,1009.59
2023-03-29T11:20:30.572Z,1009.56
2023-03-29T11:21:30.809Z,1009.62
2023-03-29T11:22:30.951Z,1009.64
2023-03-29T11:23:31.199Z,1009.71
2023-03-29T11:24:31.353Z,1009.69
2023-03-29T11:25:31.502Z,1009.63
2023-03-29T11:26:31.644Z,1009.65
2023-03-29T11:27:31.827Z,1009.71
2023-03-29T11:28:31.951Z,1009.61
2023-03-29T11:29:32.093Z,1009.58
2023-03-29T11:30:32.300Z,1009.59
2023-03-29T11:31:32.499Z,1009.57
2023-03-29T11:32:32.659Z,1009.64
2023-03-29T11:33:32.773Z,1009.46
2023-03-29T11:34:32.908Z,1009.42
2023-03-29T11:35:33.152Z,1009.38
2023-03-29T11:36:33.285Z,1009.36
2023-03-29T11:37:33.455Z,1009.41
2023-03-29T11:38:33.587Z,1009.39
2023-03-29T11:39:33.820Z,1009.34
2023-03-29T11:40:33.970Z,1009.49
2023-03-29T11:41:34.103Z,1009.39
2023-03-29T11:42:34.252Z,1009.48
2023-03-29T11:43:34.360Z,1009.49
2023-03-29T11:44:34.486Z,1009.40
2023-03-29T11:45:34.606Z,1009.39
2023-03-29T11:46:34.738Z,1009.36
2023-03-29T11:47:34.887Z,1009.27
2023-03-29T11:48:34.958Z,1009.35
2023-03-29T11:49:35.146Z,1009.35
2023-03-29T11:50:36.708Z,1009.39
2023-03-29T11:51:35.446Z,1009.38
2023-03-29T11:52:35.565Z,1009.39
2023-03-29T11:53:35.692Z,1009.36
2023-03-29T11:54:35.837Z,1009.40
2023-03-29T11:55:35.967Z,1009.36
2023-03-29T11:56:36.083Z,1009.27
2023-03-29T11:57:36.339Z,1009.35
2023-03-29T11:58:38.872Z,1009.30
2023-03-29T11:59:36.652Z,1009.25
2023-03-29T12:00:36.766Z,1009.29
2023-03-29T12:01:37.023Z,1009.29
2023-03-29T12:02:37.270Z,1009.27
2023-03-29T12:03:37.450Z,1009.34
2023-03-29T12:04:37.450Z,1009.30
2023-03-29T12:05:37.589Z,1009.30
2023-03-29T12:06:37.749Z,1009.33
2023-03-29T12:07:37.905Z,1009.30
2023-03-29T12:08:38.032Z,1009.35
2023-03-29T12:09:38.165Z,1009.38